Time;durP1;ratioP1;P1;durP2;ratioP2;P2;SDS_P1;SDS_P2;PMS_P1;PMS_P2;Temp;Humidity;BMP_temperature;BMP_pressure;BME280_temperature;BME280_humidity;BME280_pressure;Samples;Min_cycle;Max_cycle;Signal;HPM_P1;HPM_P2
2022/01/22 00:01:35;;;;;;;19.45;9.18;;;;;;;4.22;68.81;100610.47;5202838;28;20108;-67
2022/01/22 00:04:26;;;;;;;19.58;9.93;;;;;;;4.30;69.07;100612.75;5203468;28;20102;-66
2022/01/22 00:07:16;;;;;;;17.73;9.23;;;;;;;4.53;68.03;100609.16;5202020;28;20049;-67
2022/01/22 00:10:14;;;;;;;17.85;9.35;;;;;;;4.24;68.97;100597.28;5201371;28;20049;-66
2022/01/22 00:15:54;;;;;;;17.83;9.15;;;;;;;3.99;70.14;100618.44;5203087;28;20055;-67
2022/01/22 00:18:44;;;;;;;20.67;10.43;;;;;;;4.18;70.60;100615.91;5204485;28;20403;-66
2022/01/22 00:21:34;;;;;;;24.27;10.00;;;;;;;4.33;68.80;100602.13;5201874;28;20057;-66
2022/01/22 00:24:25;;;;;;;27.08;10.55;;;;;;;4.12;69.28;100593.38;5208575;28;20533;-67
2022/01/22 00:27:15;;;;;;;18.95;10.52;;;;;;;4.15;69.69;100606.38;5201156;28;20718;-67
2022/01/22 00:30:12;;;;;;;22.33;10.18;;;;;;;4.22;68.79;100607.81;5198650;28;20128;-67
2022/01/22 00:33:02;;;;;;;23.83;10.57;;;;;;;4.54;69.31;100602.16;5207917;28;20057;-66
2022/01/22 00:35:52;;;;;;;24.92;11.60;;;;;;;4.18;68.97;100593.13;5206271;28;20049;-67
2022/01/22 00:38:43;;;;;;;25.88;11.38;;;;;;;3.96;70.40;100602.81;5202414;28;20041;-67
2022/01/22 00:41:33;;;;;;;26.08;13.18;;;;;;;4.33;69.43;100585.50;5197956;28;20483;-66
2022/01/22 00:44:23;;;;;;;24.10;11.55;;;;;;;4.22;69.49;100591.22;5202185;28;20056;-66
2022/01/22 00:47:13;;;;;;;24.05;12.00;;;;;;;4.27;69.38;100591.88;5216093;28;20075;-66
2022/01/22 00:50:08;;;;;;;28.00;12.05;;;;;;;3.93;70.82;100593.28;5186811;28;20069;-66
2022/01/22 00:52:58;;;;;;;27.27;12.18;;;;;;;4.26;70.34;100594.56;5206687;28;20518;-66
2022/01/22 00:55:48;;;;;;;30.25;13.43;;;;;;;4.20;69.96;100593.91;5207234;28;20129;-66
2022/01/22 00:58:38;;;;;;;25.98;12.80;;;;;;;3.19;72.79;100576.97;5202125;28;20709;-66
2022/01/22 01:01:28;;;;;;;26.60;12.55;;;;;;;3.80;71.69;100576.31;5207530;28;20055;-67
2022/01/22 01:04:19;;;;;;;31.77;13.60;;;;;;;3.41;73.02;100584.00;5200466;28;20523;-67
2022/01/22 01:07:09;;;;;;;32.95;13.75;;;;;;;3.17;73.38;100580.56;5201182;28;20052;-66
2022/01/22 01:09:59;;;;;;;31.08;12.80;;;;;;;3.52;72.01;100602.81;5198179;28;20629;-66
2022/01/22 01:12:51;;;;;;;31.05;14.13;;;;;;;3.67;70.97;100588.22;5203288;28;20168;-66
2022/01/22 01:16:16;;;;;;;34.53;13.20;;;;;;;4.31;70.13;100598.72;5202491;28;20147;-66
2022/01/22 01:34:41;;;;;;;32.08;14.23;;;;;;;3.63;71.67;100605.84;5208595;28;20151;-67
2022/01/22 01:37:31;;;;;;;34.08;14.27;;;;;;;4.17;71.04;100606.31;5204138;28;20042;-67
2022/01/22 01:40:24;;;;;;;35.45;13.70;;;;;;;3.89;70.32;100614.47;5204162;28;20179;-65
2022/01/22 01:43:26;;;;;;;32.03;13.38;;;;;;;4.23;69.47;100608.69;5205895;28;20620;-66
2022/01/22 01:46:43;;;;;;;31.80;12.98;;;;;;;3.33;72.74;100612.28;5208590;28;20673;-67
2022/01/22 01:49:34;;;;;;;31.08;13.80;;;;;;;3.49;72.15;100608.16;5206350;28;20040;-67
2022/01/22 01:52:37;;;;;;;31.52;14.02;;;;;;;3.42;72.28;100623.28;5204472;28;20056;-67
2022/01/22 01:55:35;;;;;;;28.02;13.77;;;;;;;3.53;71.79;100597.50;5218487;28;20159;-66
2022/01/22 01:58:39;;;;;;;31.23;12.95;;;;;;;3.76;71.82;100591.34;5200262;28;20038;-66
2022/01/22 02:01:29;;;;;;;31.42;13.60;;;;;;;3.36;71.81;100614.81;5204264;28;20061;-67
2022/01/22 02:04:20;;;;;;;30.15;14.30;;;;;;;3.75;71.40;100625.53;5213644;28;20116;-66
2022/01/22 02:07:11;;;;;;;27.63;14.50;;;;;;;3.34;72.52;100633.19;5220195;28;20163;-67
2022/01/22 02:10:09;;;;;;;29.20;14.48;;;;;;;3.45;72.34;100623.16;5201626;28;20175;-67
2022/01/22 02:26:49;;;;;;;33.13;14.38;;;;;;;4.06;70.92;100614.63;5142069;28;20054;-66
2022/01/22 02:29:47;;;;;;;30.35;16.00;;;;;;;4.30;69.81;100602.25;5143226;28;20190;-66
2022/01/22 02:36:24;;;;;;;34.97;16.33;;;;;;;3.49;72.41;100597.69;5211749;28;20119;-66
2022/01/22 02:39:22;;;;;;;40.58;16.27;;;;;;;3.36;73.19;100596.44;5214951;28;20068;-67
2022/01/22 02:42:13;;;;;;;32.55;14.95;;;;;;;3.58;72.27;100613.06;5204368;28;20542;-67
2022/01/22 02:45:11;;;;;;;38.72;16.48;;;;;;;3.04;73.62;100606.38;5203168;28;20057;-66
2022/01/22 02:48:02;;;;;;;29.52;16.67;;;;;;;3.21;72.89;100588.25;5203449;28;20139;-65
2022/01/22 02:50:52;;;;;;;36.85;16.67;;;;;;;3.09;73.67;100601.81;5216376;28;20045;-66
2022/01/22 02:53:42;;;;;;;39.97;17.40;;;;;;;2.90;75.64;100593.78;5197962;28;20095;-65
2022/01/22 02:56:33;;;;;;;34.88;15.77;;;;;;;3.73;71.65;100604.56;5204181;28;20106;-67
2022/01/22 02:59:25;;;;;;;44.92;17.10;;;;;;;4.14;70.59;100578.44;5201653;28;20051;-67
2022/01/22 03:02:16;;;;;;;34.72;16.35;;;;;;;4.59;68.70;100579.16;5202776;28;20139;-67
2022/01/22 03:05:09;;;;;;;43.40;17.63;;;;;;;4.54;68.38;100589.88;5217023;28;20047;-66
2022/01/22 03:08:06;;;;;;;44.55;18.48;;;;;;;3.49;71.82;100567.06;5198803;28;20516;-66
2022/01/22 03:10:56;;;;;;;34.72;17.00;;;;;;;3.47;72.48;100584.63;5198503;28;20147;-67
2022/01/22 03:14:31;;;;;;;47.95;18.27;;;;;;;3.57;72.71;100587.72;5202295;28;20119;-66
2022/01/22 03:29:12;;;;;;;36.90;18.58;;;;;;;4.12;70.38;100596.00;5203358;28;20049;-66
2022/01/22 03:32:03;;;;;;;34.95;17.25;;;;;;;3.70;72.56;100582.84;5216141;28;20444;-66
2022/01/22 03:34:57;;;;;;;43.17;18.10;;;;;;;4.17;69.72;100580.94;5199247;28;20462;-65
2022/01/22 03:37:51;;;;;;;44.45;18.27;;;;;;;3.91;70.72;100584.63;5215960;28;20175;-67
2022/01/22 03:40:42;;;;;;;35.65;17.35;;;;;;;3.66;72.25;100573.41;5203377;28;20076;-66
2022/01/22 03:43:32;;;;;;;45.75;18.25;;;;;;;4.23;69.96;100564.88;5203236;28;20048;-66
2022/01/22 03:46:24;;;;;;;36.53;18.85;;;;;;;3.11;74.43;100560.66;5198349;28;20068;-66
2022/01/22 03:49:17;;;;;;;42.00;18.48;;;;;;;3.75;71.89;100563.41;5202164;28;20049;-66
2022/01/22 03:52:09;;;;;;;41.22;18.17;;;;;;;3.96;71.12;100558.19;5193389;28;20063;-66
2022/01/22 03:54:59;;;;;;;41.53;17.70;;;;;;;3.77;71.17;100571.19;5199646;28;20421;-66
2022/01/22 03:58:18;;;;;;;43.55;18.92;;;;;;;3.60;72.70;100564.00;5202478;28;20060;-66
2022/01/22 04:04:13;;;;;;;38.85;18.50;;;;;;;3.80;72.28;100571.06;5200581;22;20151;-81
2022/01/22 04:10:06;;;;;;;36.45;18.70;;;;;;;3.64;72.33;100563.00;5184129;28;20100;-81
2022/01/22 04:15:48;;;;;;;46.92;18.60;;;;;;;3.94;70.75;100562.63;5187928;28;20076;-80
2022/01/22 04:24:56;;;;;;;40.33;19.00;;;;;;;3.64;71.60;100570.88;5200650;28;20049;-81
2022/01/22 04:27:48;;;;;;;42.78;18.70;;;;;;;4.28;69.74;100562.09;5186954;28;20526;-81
2022/01/22 04:30:38;;;;;;;42.60;19.63;;;;;;;3.14;73.08;100552.69;5187530;28;20132;-81
2022/01/22 04:33:29;;;;;;;43.78;19.77;;;;;;;3.78;71.86;100535.34;5185827;28;20116;-81
2022/01/22 04:36:18;;;;;;;37.58;19.25;;;;;;;3.69;72.46;100561.03;5170703;28;20524;-81
2022/01/22 04:39:10;;;;;;;45.95;19.67;;;;;;;3.86;71.10;100549.00;5184902;28;20111;-81
2022/01/22 04:42:00;;;;;;;41.83;19.77;;;;;;;3.87;71.90;100551.53;5184121;28;20053;-81
2022/01/22 04:56:54;;;;;;;41.03;19.35;;;;;;;4.08;70.84;100578.69;5196820;28;20060;-80
2022/01/22 04:59:44;;;;;;;46.33;18.25;;;;;;;4.40;69.95;100584.31;5191736;28;20052;-80
2022/01/22 05:02:35;;;;;;;48.92;20.02;;;;;;;4.51;69.69;100584.75;5191050;28;20140;-81
2022/01/22 05:05:48;;;;;;;37.50;18.50;;;;;;;4.86;67.67;100559.50;5191603;28;20053;-81
2022/01/22 05:08:50;;;;;;;44.85;19.40;;;;;;;4.64;68.45;100551.75;5178827;28;20053;-80
2022/01/22 05:11:41;;;;;;;51.30;19.92;;;;;;;4.14;70.56;100567.94;5173355;28;20092;-80
2022/01/22 05:14:33;;;;;;;38.88;18.38;;;;;;;4.11;71.14;100585.59;5186658;28;20052;-81
2022/01/22 05:17:25;;;;;;;47.15;19.17;;;;;;;4.27;69.53;100589.25;5187027;28;20112;-80
2022/01/22 05:20:29;;;;;;;33.38;15.57;;;;;;;3.43;72.88;100595.28;5186417;28;20559;-80
2022/01/22 05:23:24;;;;;;;38.30;18.13;;;;;;;3.76;71.54;100570.34;5175620;28;20412;-80
2022/01/22 05:26:42;;;;;;;35.30;18.48;;;;;;;3.22;72.37;100558.50;5186212;28;20640;-81
2022/01/22 05:39:35;;;;;;;42.10;18.25;;;;;;;3.78;71.66;100599.16;5200002;28;20069;-80
2022/01/22 05:42:25;;;;;;;45.28;18.88;;;;;;;4.00;71.31;100578.13;5179422;28;20570;-80
2022/01/22 05:45:15;;;;;;;43.80;18.88;;;;;;;4.47;68.95;100588.44;5186804;28;20056;-80
2022/01/22 05:48:07;;;;;;;42.72;19.33;;;;;;;4.48;69.98;100619.00;5192699;28;20054;-80
2022/01/22 05:51:02;;;;;;;43.22;18.67;;;;;;;3.46;72.40;100595.19;5194224;28;20049;-81
2022/01/22 05:59:58;;;;;;;43.78;20.55;;;;;;;4.40;69.42;100600.09;5201482;28;20053;-80
2022/01/22 06:02:49;;;;;;;41.17;20.15;;;;;;;4.50;68.95;100604.03;5186576;28;20053;-80
2022/01/22 06:05:43;;;;;;;44.35;20.65;;;;;;;4.59;68.23;100605.41;5186904;28;20124;-80
2022/01/22 06:08:40;;;;;;;40.47;18.38;;;;;;;4.15;69.72;100593.25;5156778;28;20157;-81
2022/01/22 06:11:36;;;;;;;39.40;19.88;;;;;;;4.47;69.71;100625.19;5199104;28;20419;-79
2022/01/22 06:14:27;;;;;;;44.38;20.15;;;;;;;4.68;67.81;100595.34;5187764;28;20100;-79
2022/01/22 06:17:18;;;;;;;50.83;19.63;;;;;;;4.02;70.28;100618.31;5173764;28;20046;-79
2022/01/22 06:20:15;;;;;;;42.75;18.98;;;;;;;4.32;69.79;100620.56;5185577;28;20441;-80
2022/01/22 06:23:05;;;;;;;41.38;18.73;;;;;;;4.36;69.76;100623.00;5185212;28;20554;-80
2022/01/22 06:26:00;;;;;;;41.03;18.33;;;;;;;4.03;70.20;100583.25;5185583;28;20076;-80
2022/01/22 06:28:52;;;;;;;36.55;18.13;;;;;;;4.06;70.20;100598.03;5185682;28;20126;-80
2022/01/22 06:31:47;;;;;;;38.95;17.55;;;;;;;3.83;71.51;100586.69;5185087;28;20038;-79
2022/01/22 06:34:39;;;;;;;39.72;18.05;;;;;;;4.04;69.93;100607.72;5184913;28;20068;-79
2022/01/22 06:37:31;;;;;;;36.97;19.50;;;;;;;3.87;71.23;100626.78;5199037;28;20508;-79
2022/01/22 06:43:54;;;;;;;42.60;18.60;;;;;;;4.67;67.73;100603.31;5185829;28;20057;-80
2022/01/22 06:46:57;;;;;;;43.35;17.48;;;;;;;4.92;67.67;100637.25;5184993;28;20083;-80
2022/01/22 06:50:07;;;;;;;42.20;17.40;;;;;;;4.76;68.24;100646.72;5197172;28;20096;-80
2022/01/22 06:53:17;;;;;;;37.72;16.98;;;;;;;4.52;68.69;100630.25;5185915;28;20115;-80
2022/01/22 06:56:11;;;;;;;39.60;18.73;;;;;;;4.62;68.36;100629.78;5170933;28;20426;-80
2022/01/22 06:59:24;;;;;;;37.03;16.80;;;;;;;4.92;67.36;100635.47;5180548;28;20133;-80
2022/01/22 07:02:15;;;;;;;35.47;16.85;;;;;;;4.66;67.44;100639.22;5184521;28;20050;-80
2022/01/22 07:05:06;;;;;;;37.80;16.33;;;;;;;4.74;68.51;100641.53;5184611;28;20054;-80
2022/01/22 07:08:16;;;;;;;36.80;17.15;;;;;;;4.75;67.41;100643.25;5195887;28;20042;-80
2022/01/22 07:11:10;;;;;;;39.53;18.73;;;;;;;4.73;68.09;100626.69;5184156;28;20069;-80
2022/01/22 07:14:05;;;;;;;44.10;17.95;;;;;;;4.48;69.76;100656.63;5171369;28;20124;-80
2022/01/22 07:16:56;;;;;;;33.47;16.45;;;;;;;4.64;68.39;100656.00;5183496;28;20053;-80
2022/01/22 07:20:10;;;;;;;41.75;17.67;;;;;;;4.95;67.65;100640.59;5184554;28;20068;-80
2022/01/22 07:23:14;;;;;;;32.53;17.52;;;;;;;5.01;67.83;100628.09;5184432;28;20044;-80
2022/01/22 07:26:17;;;;;;;33.78;17.45;;;;;;;4.54;68.31;100625.78;5183838;28;20046;-80
2022/01/22 07:29:21;;;;;;;32.15;17.85;;;;;;;4.05;70.97;100639.19;5198536;28;20077;-80
2022/01/22 07:32:17;;;;;;;38.20;17.25;;;;;;;3.91;71.54;100655.47;5170690;28;20606;-80
2022/01/22 07:35:12;;;;;;;38.58;17.17;;;;;;;3.92;70.70;100649.31;5199342;28;20443;-80
2022/01/22 07:38:02;;;;;;;41.17;17.88;;;;;;;3.88;71.63;100652.97;5183559;28;20088;-80
2022/01/22 07:40:53;;;;;;;41.78;18.30;;;;;;;3.91;70.48;100641.50;5184898;28;20499;-80
2022/01/22 07:43:56;;;;;;;38.60;18.50;;;;;;;3.83;72.08;100668.03;5171309;28;20042;-80
2022/01/22 07:46:49;;;;;;;40.50;17.92;;;;;;;4.39;70.47;100664.03;5169968;28;20053;-80
2022/01/22 07:49:44;;;;;;;38.55;18.48;;;;;;;3.83;71.15;100649.66;5170233;28;20131;-80
2022/01/22 07:52:34;;;;;;;35.05;18.27;;;;;;;4.61;70.05;100649.09;5183314;28;20061;-81
2022/01/22 07:55:25;;;;;;;40.13;18.80;;;;;;;4.58;68.38;100627.34;5182947;28;20042;-79
2022/01/22 07:58:21;;;;;;;38.90;18.88;;;;;;;3.60;72.68;100653.19;5170635;28;20135;-80
2022/01/22 08:01:11;;;;;;;40.50;17.10;;;;;;;4.39;69.47;100653.53;5182048;28;20057;-81
2022/01/22 08:04:24;;;;;;;38.03;17.98;;;;;;;4.07;71.54;100655.69;5166692;28;20109;-83
2022/01/22 08:07:33;;;;;;;43.30;17.80;;;;;;;4.10;70.84;100636.34;5152460;28;20148;-83
2022/01/22 08:10:42;;;;;;;37.72;17.35;;;;;;;4.49;68.98;100654.84;5164573;28;20128;-84
2022/01/22 08:13:33;;;;;;;38.78;17.73;;;;;;;4.30;69.43;100638.16;5178191;28;20148;-85
2022/01/22 08:16:25;;;;;;;42.88;18.40;;;;;;;4.13;70.24;100647.59;5178775;28;20069;-84
2022/01/22 08:19:17;;;;;;;35.67;17.27;;;;;;;4.05;71.22;100665.44;5176848;28;20523;-83
2022/01/22 08:22:07;;;;;;;43.90;18.25;;;;;;;4.28;70.56;100671.53;5195937;28;20049;-82
2022/01/22 08:25:31;;;;;;;38.40;18.38;;;;;;;4.69;68.31;100640.88;5167006;28;20103;-84
2022/01/22 08:28:53;;;;;;;35.50;18.08;;;;;;;5.13;67.87;100672.25;5182770;28;20045;-84
2022/01/22 08:32:06;;;;;;;34.08;16.58;;;;;;;3.78;72.01;100677.88;5182731;28;20144;-84
2022/01/22 08:38:07;;;;;;;33.65;17.45;;;;;;;3.85;71.14;100671.47;5196842;28;20049;-84
2022/01/22 08:40:58;;;;;;;34.33;17.50;;;;;;;4.47;70.36;100683.84;5182907;28;20056;-82
2022/01/22 08:43:51;;;;;;;38.60;16.75;;;;;;;4.40;69.86;100681.50;5183401;28;20092;-84
2022/01/22 08:46:41;;;;;;;39.05;17.48;;;;;;;4.52;68.74;100682.78;5197574;28;20046;-85
2022/01/22 08:49:35;;;;;;;36.95;17.45;;;;;;;4.54;69.46;100671.28;5181711;28;20092;-84
2022/01/22 08:52:33;;;;;;;35.20;17.27;;;;;;;4.25;70.56;100675.13;5198774;28;20053;-86
2022/01/22 08:55:24;;;;;;;42.15;17.60;;;;;;;3.56;72.78;100682.22;5187722;28;20598;-85
2022/01/22 08:58:16;;;;;;;39.53;18.45;;;;;;;4.35;70.96;100701.88;5201622;28;20420;-85
2022/01/22 09:01:13;;;;;;;36.55;17.80;;;;;;;4.47;69.31;100682.97;5185133;28;20049;-85
2022/01/22 09:04:08;;;;;;;48.42;18.52;;;;;;;4.90;68.93;100704.78;5181568;28;20053;-84
2022/01/22 09:07:17;;;;;;;41.13;17.75;;;;;;;4.78;67.47;100634.38;5182587;28;20049;-84
2022/01/22 09:10:26;;;;;;;40.85;17.88;;;;;;;4.93;67.33;100676.63;5183009;28;20049;-86
2022/01/22 09:13:35;;;;;;;38.25;17.90;;;;;;;3.79;71.56;100697.09;5190729;28;20064;-85
2022/01/22 09:16:28;;;;;;;38.60;17.98;;;;;;;4.71;68.33;100702.13;5183211;28;20558;-86
2022/01/22 09:19:33;;;;;;;37.67;18.30;;;;;;;4.47;69.60;100731.13;5177224;28;20049;-85
2022/01/22 09:22:25;;;;;;;40.83;18.70;;;;;;;5.00;68.76;100721.91;5193681;28;20060;-84
2022/01/22 09:25:16;;;;;;;39.50;18.08;;;;;;;4.64;68.72;100712.03;5184048;28;20081;-84
2022/01/22 09:28:12;;;;;;;40.75;17.90;;;;;;;4.39;70.36;100703.44;5184098;28;20049;-84
2022/01/22 09:31:04;;;;;;;39.88;17.58;;;;;;;4.58;69.18;100701.75;5184588;28;20053;-85
2022/01/22 09:33:56;;;;;;;44.80;18.50;;;;;;;4.84;69.09;100723.47;5164163;28;20049;-85
2022/01/22 09:37:13;;;;;;;39.67;17.77;;;;;;;4.35;70.37;100707.97;5178990;28;20432;-84
2022/01/22 09:40:29;;;;;;;39.50;19.05;;;;;;;5.08;69.62;100735.56;5183918;28;20573;-84
2022/01/22 09:43:37;;;;;;;34.00;17.58;;;;;;;4.55;69.34;100699.25;5187510;28;20053;-85
2022/01/22 09:46:40;;;;;;;40.00;18.45;;;;;;;4.20;70.91;100716.44;5174583;28;20048;-83
2022/01/22 09:49:38;;;;;;;45.92;18.27;;;;;;;4.36;70.97;100748.22;5184011;28;20049;-83
2022/01/22 09:52:31;;;;;;;40.08;18.50;;;;;;;4.48;70.73;100721.47;5215631;23;20180;-70
2022/01/22 09:55:48;;;;;;;35.90;18.25;;;;;;;4.60;70.09;100749.84;5183147;28;20061;-72
2022/01/22 09:58:55;;;;;;;39.17;16.90;;;;;;;4.46;70.40;100763.53;5180745;28;20532;-72
2022/01/22 10:02:13;;;;;;;39.28;17.90;;;;;;;4.80;69.69;100761.28;5178897;28;20048;-73
2022/01/22 10:05:04;;;;;;;41.53;17.77;;;;;;;4.61;69.54;100743.69;5202090;22;20054;-81
2022/01/22 10:08:35;;;;;;;36.83;17.95;;;;;;;4.99;70.02;100762.22;5192845;28;20095;-81
2022/01/22 10:11:45;;;;;;;37.65;17.15;;;;;;;4.37;71.73;100744.66;5196949;28;20073;-80
2022/01/22 10:15:03;;;;;;;41.43;17.03;;;;;;;5.09;69.27;100765.31;5197029;28;20115;-81
2022/01/22 10:17:55;;;;;;;37.50;18.08;;;;;;;4.90;69.89;100752.09;5170081;28;20097;-81
2022/01/22 10:20:45;;;;;;;37.50;18.35;;;;;;;5.01;69.39;100743.78;5190960;28;20148;-81
2022/01/22 10:23:39;;;;;;;42.92;18.83;;;;;;;5.33;69.73;100747.63;5179663;28;20157;-81
2022/01/22 10:26:29;;;;;;;35.78;18.05;;;;;;;5.36;68.11;100743.09;5177059;28;20057;-81
2022/01/22 10:29:20;;;;;;;36.58;16.90;;;;;;;5.59;67.16;100744.69;5174842;28;20218;-81
2022/01/22 10:32:17;;;;;;;35.65;17.17;;;;;;;5.34;68.20;100734.41;5175399;28;20455;-81
2022/01/22 10:35:28;;;;;;;39.20;17.65;;;;;;;5.53;68.35;100731.81;5168731;28;20062;-81
2022/01/22 10:38:58;;;;;;;45.65;18.52;;;;;;;5.46;67.10;100727.75;5175453;28;20051;-81
2022/01/22 10:41:49;;;;;;;34.55;16.95;;;;;;;5.16;68.64;100724.69;5189089;28;20543;-81
2022/01/22 10:44:46;;;;;;;39.60;16.90;;;;;;;5.16;68.44;100729.94;5190507;28;20113;-81
2022/01/22 10:47:36;;;;;;;35.85;17.58;;;;;;;5.15;68.66;100701.97;5169821;28;20081;-81
2022/01/22 10:50:26;;;;;;;38.90;17.45;;;;;;;5.59;67.74;100723.63;5159836;28;20530;-81
2022/01/22 10:53:16;;;;;;;37.63;17.27;;;;;;;5.42;67.70;100699.88;5175139;28;20108;-81
2022/01/22 10:56:07;;;;;;;39.00;16.77;;;;;;;5.14;69.20;100701.13;5189857;28;20077;-81
2022/01/22 10:59:05;;;;;;;42.10;16.02;;;;;;;5.25;69.26;100708.53;5192489;28;20068;-81
2022/01/22 11:01:59;;;;;;;37.80;15.98;;;;;;;5.97;66.44;100693.88;5192557;28;20045;-80
2022/01/22 11:04:50;;;;;;;38.88;17.70;;;;;;;5.91;67.49;100697.59;5193982;28;20061;-81
2022/01/22 11:07:40;;;;;;;38.78;17.67;;;;;;;6.16;65.82;100723.69;5195657;28;20487;-81
2022/01/22 11:10:30;;;;;;;33.97;17.63;;;;;;;5.66;67.10;100687.34;5173999;28;20052;-81
2022/01/22 11:13:23;;;;;;;35.20;15.43;;;;;;;5.63;67.71;100716.47;5183389;28;20109;-81
2022/01/22 11:16:15;;;;;;;34.40;15.60;;;;;;;6.11;65.64;100726.50;5158632;28;20057;-81
2022/01/22 11:19:32;;;;;;;34.25;15.18;;;;;;;5.01;69.04;100720.97;5184771;28;20109;-80
2022/01/22 11:22:26;;;;;;;36.53;15.07;;;;;;;5.40;67.92;100709.63;5195953;28;20082;-80
2022/01/22 11:25:17;;;;;;;25.73;11.93;;;;;;;5.73;66.78;100706.34;5161847;28;20076;-81
2022/01/22 11:28:08;;;;;;;38.92;15.30;;;;;;;5.04;69.86;100720.84;5184936;28;20402;-80
2022/01/22 11:31:00;;;;;;;30.65;16.25;;;;;;;5.67;68.10;100717.19;5177354;28;20054;-80
2022/01/22 11:33:51;;;;;;;33.15;14.75;;;;;;;5.91;67.15;100692.34;5183021;28;20463;-80
2022/01/22 11:37:12;;;;;;;30.92;14.77;;;;;;;5.96;66.83;100729.00;5183065;28;20074;-80
2022/01/22 11:40:32;;;;;;;33.25;14.30;;;;;;;5.75;68.21;100723.78;5174117;28;20052;-80
2022/01/22 11:43:34;;;;;;;29.85;13.55;;;;;;;5.34;67.78;100687.06;5182549;28;20068;-80
2022/01/22 11:46:32;;;;;;;38.17;13.80;;;;;;;5.84;66.47;100697.03;5182849;28;20069;-80
2022/01/22 11:49:27;;;;;;;30.63;14.63;;;;;;;6.19;65.91;100714.75;5188364;28;20064;-79
2022/01/22 11:52:23;;;;;;;30.88;14.55;;;;;;;4.72;71.13;100701.19;5190111;28;20694;-79
2022/01/22 11:55:15;;;;;;;31.67;14.38;;;;;;;6.22;66.77;100717.25;5184906;28;20068;-80
2022/01/22 11:58:07;;;;;;;32.67;14.10;;;;;;;6.07;67.16;100695.13;5178087;28;20423;-80
2022/01/22 12:00:57;;;;;;;29.85;14.05;;;;;;;6.50;65.26;100695.69;5192750;28;20081;-80
2022/01/22 12:03:57;;;;;;;28.88;13.02;;;;;;;6.18;66.34;100700.72;5187532;28;20124;-80
2022/01/22 12:07:02;;;;;;;24.35;12.25;;;;;;;6.07;66.63;100700.41;5174078;28;20423;-80
2022/01/22 12:09:54;;;;;;;34.47;13.60;;;;;;;6.51;65.33;100702.66;5171430;28;20046;-81
2022/01/22 12:15:41;;;;;;;26.13;12.65;;;;;;;6.21;67.20;100705.00;5190915;28;20069;-81
2022/01/22 12:18:40;;;;;;;25.38;12.18;;;;;;;6.00;66.97;100656.88;5180659;28;20053;-81
2022/01/22 12:21:35;;;;;;;26.45;13.52;;;;;;;6.58;66.38;100704.91;5181334;28;20148;-80
2022/01/22 12:24:32;;;;;;;31.10;12.93;;;;;;;5.88;67.15;100713.56;5161669;28;20103;-81
2022/01/22 12:27:42;;;;;;;27.95;13.38;;;;;;;5.48;68.77;100710.13;5177377;28;20057;-81
2022/01/22 12:30:51;;;;;;;30.50;14.02;;;;;;;6.06;66.33;100709.22;5177681;28;20061;-80
2022/01/22 12:33:41;;;;;;;27.83;13.38;;;;;;;5.87;67.46;100707.44;5175605;28;20381;-81
2022/01/22 12:36:39;;;;;;;23.90;12.93;;;;;;;5.96;66.99;100714.09;5162291;28;20053;-80
2022/01/22 12:39:30;;;;;;;24.85;13.05;;;;;;;6.24;65.77;100687.28;5174039;28;20046;-80
2022/01/22 12:42:33;;;;;;;27.95;13.27;;;;;;;6.18;65.42;100689.34;5167700;28;20064;-81
2022/01/22 12:45:25;;;;;;;30.63;13.07;;;;;;;6.24;66.09;100715.41;5162542;28;20136;-81
2022/01/22 12:48:16;;;;;;;27.38;13.70;;;;;;;6.18;66.70;100720.97;5170579;28;20281;-80
2022/01/22 12:51:08;;;;;;;34.28;13.40;;;;;;;5.92;66.97;100716.88;5150051;28;21112;-81
2022/01/22 12:53:58;;;;;;;26.88;12.18;;;;;;;6.08;66.64;100700.31;5160361;28;20057;-81
2022/01/22 12:56:51;;;;;;;30.60;13.23;;;;;;;6.09;65.06;100670.44;5165732;28;20415;-80
2022/01/22 12:59:54;;;;;;;26.75;12.35;;;;;;;5.02;69.17;100712.16;5161502;28;20057;-80
2022/01/22 13:02:57;;;;;;;27.83;11.05;;;;;;;4.96;70.44;100720.31;5164648;28;20065;-79
2022/01/22 13:05:50;;;;;;;28.23;12.85;;;;;;;5.22;69.39;100697.28;5166778;28;20527;-79
2022/01/22 13:08:48;;;;;;;52.47;22.70;;;;;;;5.02;70.07;100712.16;5173903;28;20106;-79
2022/01/22 13:11:50;;;;;;;32.13;14.98;;;;;;;5.91;67.68;100702.88;5164984;28;20500;-79
2022/01/22 13:14:41;;;;;;;34.78;17.90;;;;;;;5.76;66.50;100664.97;5165538;28;20125;-80
2022/01/22 13:17:33;;;;;;;32.10;13.13;;;;;;;5.85;67.12;100697.91;5164856;28;20152;-80
2022/01/22 13:20:26;;;;;;;27.27;13.20;;;;;;;5.27;68.43;100697.94;5167362;28;20516;-79
2022/01/22 13:23:18;;;;;;;35.03;14.07;;;;;;;5.21;69.52;100692.97;5167050;28;20050;-80
2022/01/22 13:26:09;;;;;;;31.52;14.38;;;;;;;5.82;67.42;100700.66;5168086;28;20054;-81
2022/01/22 13:29:14;;;;;;;33.25;14.13;;;;;;;6.11;66.76;100697.53;5169505;28;20053;-80
2022/01/22 13:32:13;;;;;;;31.58;14.60;;;;;;;5.36;68.70;100705.41;5175273;28;20061;-81
2022/01/22 13:35:23;;;;;;;28.02;14.52;;;;;;;5.19;69.73;100707.00;5137922;28;20057;-81
2022/01/22 13:39:07;;;;;;;36.28;16.10;;;;;;;5.18;70.06;100686.06;5168849;28;20054;-81
2022/01/22 13:47:53;;;;;;;27.20;13.80;;;;;;;5.13;69.43;100674.88;5167199;28;20451;-81
2022/01/22 13:51:04;;;;;;;27.48;14.32;;;;;;;5.58;67.54;100684.25;5170013;28;20133;-81
2022/01/22 13:53:56;;;;;;;31.05;14.18;;;;;;;5.42;67.46;100689.34;5154898;28;20530;-81
2022/01/22 13:56:55;;;;;;;26.90;14.55;;;;;;;5.90;67.11;100701.19;5167740;28;20081;-81
2022/01/22 13:59:48;;;;;;;32.38;16.33;;;;;;;4.56;70.63;100706.22;5167339;28;20049;-80
2022/01/22 14:05:40;;;;;;;26.35;13.68;;;;;;;5.01;69.21;100676.28;5150796;28;20155;-81
2022/01/22 14:08:33;;;;;;;32.45;15.63;;;;;;;5.06;69.42;100692.69;5159262;28;20711;-81
2022/01/22 14:11:23;;;;;;;38.70;16.08;;;;;;;5.57;67.71;100677.28;5166661;28;20104;-81
2022/01/22 14:14:14;;;;;;;32.60;14.93;;;;;;;5.24;68.30;100679.66;5167581;28;20080;-81
2022/01/22 14:17:09;;;;;;;31.45;16.70;;;;;;;6.07;66.91;100700.41;5176425;28;20068;-80
2022/01/22 14:20:06;;;;;;;35.50;15.77;;;;;;;5.47;68.03;100692.63;5172652;28;20049;-80
2022/01/22 14:23:06;;;;;;;34.95;15.20;;;;;;;5.60;67.57;100703.47;5169873;28;20425;-80
2022/01/22 14:26:33;;;;;;;32.03;15.20;;;;;;;5.19;68.54;100687.75;5168378;28;20061;-80
2022/01/22 14:29:23;;;;;;;31.77;15.18;;;;;;;5.07;68.86;100690.94;5169226;28;20094;-80
2022/01/22 14:32:17;;;;;;;37.67;16.00;;;;;;;5.28;68.09;100675.97;5168392;28;20047;-80
2022/01/22 14:35:20;;;;;;;29.77;14.15;;;;;;;4.66;69.71;100654.13;5169164;28;20073;-81
2022/01/22 14:38:39;;;;;;;36.83;16.67;;;;;;;5.30;69.27;100705.69;5169071;28;20408;-80
2022/01/22 14:44:41;;;;;;;42.15;17.15;;;;;;;5.25;69.77;100712.94;5167320;28;20054;-81
2022/01/22 14:47:32;;;;;;;36.70;16.10;;;;;;;5.04;69.67;100707.69;5166756;28;20136;-80
2022/01/22 14:50:22;;;;;;;32.72;16.00;;;;;;;5.18;69.10;100686.06;5170676;28;20061;-80
2022/01/22 14:53:13;;;;;;;32.95;16.20;;;;;;;5.72;66.97;100694.97;5167187;28;20056;-81
2022/01/22 14:56:03;;;;;;;34.03;16.45;;;;;;;5.68;67.36;100705.72;5167015;28;20100;-81
2022/01/22 14:58:53;;;;;;;37.17;16.05;;;;;;;5.63;67.60;100708.59;5165758;28;20253;-81
2022/01/22 15:01:43;;;;;;;33.80;16.42;;;;;;;5.49;68.37;100706.56;5168442;28;20055;-80
2022/01/22 15:04:34;;;;;;;38.35;16.67;;;;;;;5.89;67.45;100731.03;5170810;28;20050;-81
2022/01/22 15:07:24;;;;;;;34.55;15.88;;;;;;;5.43;68.56;100717.38;5170681;28;20417;-81
2022/01/22 15:10:21;;;;;;;43.33;17.42;;;;;;;5.61;68.21;100720.94;5170945;28;20058;-81
2022/01/22 15:13:12;;;;;;;38.75;19.40;;;;;;;5.55;68.44;100706.28;5170577;28;20432;-80
2022/01/22 15:16:02;;;;;;;34.38;16.77;;;;;;;5.05;69.59;100708.53;5171192;28;20078;-80
2022/01/22 15:19:01;;;;;;;40.15;18.23;;;;;;;5.23;68.33;100710.38;5170393;28;20583;-80
2022/01/22 15:21:51;;;;;;;48.90;18.25;;;;;;;4.76;70.12;100721.16;5152545;28;20424;-80
2022/01/22 15:24:46;;;;;;;42.45;18.75;;;;;;;4.77;70.31;100740.38;5160312;28;20062;-80